createdAt,value
2018-12-10T00:00:31.796Z,98486.91
2018-12-10T00:03:08.858Z,98481.73
2018-12-10T00:05:39.892Z,98485.80
2018-12-10T00:08:08.937Z,98491.58
2018-12-10T00:10:41.569Z,98486.55
2018-12-10T00:13:09.642Z,98487.39
2018-12-10T00:15:38.651Z,98497.34
2018-12-10T00:18:08.851Z,98500.41
2018-12-10T00:20:38.313Z,98498.50
2018-12-10T00:23:07.433Z,98506.96
2018-12-10T00:25:36.734Z,98509.23
2018-12-10T00:28:05.864Z,98514.27
2018-12-10T00:30:34.881Z,98513.48
2018-12-10T00:33:03.896Z,98510.20
2018-12-10T00:35:33.725Z,98513.70
2018-12-10T00:38:02.717Z,98512.95
2018-12-10T00:40:31.827Z,98513.27
2018-12-10T00:43:01.233Z,98512.23
2018-12-10T00:45:30.313Z,98512.45
2018-12-10T00:47:59.425Z,98514.41
2018-12-10T00:50:28.537Z,98520.16
2018-12-10T00:52:57.533Z,98529.27
2018-12-10T00:55:26.661Z,98523.03
2018-12-10T00:57:56.080Z,98528.73
2018-12-10T01:00:25.474Z,98528.13
2018-12-10T01:02:54.461Z,98529.14
2018-12-10T01:05:24.009Z,98535.58
2018-12-10T01:07:53.201Z,98415.52
2018-12-10T01:10:22.912Z,98538.63
2018-12-10T01:12:52.333Z,98537.89
2018-12-10T01:15:21.398Z,98538.94
2018-12-10T01:17:50.503Z,98541.75
2018-12-10T01:20:19.913Z,98542.02
2018-12-10T01:22:49.017Z,98542.23
2018-12-10T01:25:18.201Z,98549.52
2018-12-10T01:27:47.587Z,98548.46
2018-12-10T01:30:16.717Z,98554.52
2018-12-10T01:32:46.414Z,98554.16
2018-12-10T01:35:15.922Z,98552.83
2018-12-10T01:37:45.001Z,98557.27
2018-12-10T01:40:14.052Z,98556.62
2018-12-10T01:42:43.413Z,98551.91
2018-12-10T01:45:12.501Z,98551.03
2018-12-10T01:47:41.593Z,98541.31
2018-12-10T01:50:11.001Z,98546.02
2018-12-10T01:52:40.095Z,98542.80
2018-12-10T01:55:09.197Z,98535.08
2018-12-10T01:57:39.826Z,98546.56
2018-12-10T02:00:09.145Z,98550.43
2018-12-10T02:02:38.214Z,98551.28
2018-12-10T02:05:07.825Z,98549.75
2018-12-10T02:07:36.933Z,98558.63
2018-12-10T02:10:08.881Z,98561.44
2018-12-10T02:12:37.905Z,98563.88
2018-12-10T02:15:06.957Z,98560.77
2018-12-10T02:17:36.077Z,98575.47
2018-12-10T02:20:05.585Z,98564.62
2018-12-10T02:22:36.105Z,98570.86
2018-12-10T02:25:06.422Z,98562.25
2018-12-10T02:27:35.533Z,98440.30
2018-12-10T02:30:05.347Z,98562.32
2018-12-10T02:32:34.415Z,98562.69
2018-12-10T02:35:03.622Z,98565.23
2018-12-10T02:37:33.142Z,98557.23
2018-12-10T02:40:02.215Z,98564.83
2018-12-10T02:42:31.293Z,98557.00
2018-12-10T02:45:00.629Z,98569.95
2018-12-10T02:47:29.623Z,98565.07
2018-12-10T02:49:58.690Z,98568.21
2018-12-10T02:52:28.214Z,98562.89
2018-12-10T02:54:57.269Z,98565.81
2018-12-10T02:57:27.572Z,98554.59
2018-12-10T02:59:56.960Z,98558.94
2018-12-10T03:02:26.230Z,98564.22
2018-12-10T03:04:56.332Z,98561.88
2018-12-10T03:07:25.857Z,98562.83
2018-12-10T03:09:54.947Z,98571.13
2018-12-10T03:12:24.124Z,98573.02
2018-12-10T03:14:53.157Z,98574.47
2018-12-10T03:17:22.439Z,98569.19
2018-12-10T03:19:51.536Z,98574.00
2018-12-10T03:22:20.942Z,98583.92
2018-12-10T03:24:50.010Z,98583.06
2018-12-10T03:27:19.119Z,98582.32
2018-12-10T03:29:48.534Z,98581.95
2018-12-10T03:32:17.607Z,98583.80
2018-12-10T03:34:46.603Z,98590.51
2018-12-10T03:37:16.230Z,98591.19
2018-12-10T03:39:45.260Z,98589.88
2018-12-10T03:42:14.673Z,98598.75
2018-12-10T03:44:43.733Z,98593.05
2018-12-10T03:47:12.759Z,98589.50
2018-12-10T03:49:41.798Z,98594.30
2018-12-10T03:52:11.226Z,98596.18
2018-12-10T03:54:40.301Z,98600.22
2018-12-10T03:57:09.408Z,98603.26
2018-12-10T03:59:39.115Z,98602.09
2018-12-10T04:02:08.152Z,98604.45
2018-12-10T04:04:37.190Z,98605.86
2018-12-10T04:07:06.593Z,98608.27
2018-12-10T04:09:35.689Z,98605.08
2018-12-10T04:12:05.019Z,98609.22
2018-12-10T04:14:34.509Z,98622.81
2018-12-10T04:17:03.707Z,98614.13
2018-12-10T04:19:32.794Z,98618.95
2018-12-10T04:22:02.187Z,98619.73
2018-12-10T04:24:31.266Z,98623.02
2018-12-10T04:27:00.483Z,98627.73
2018-12-10T04:29:30.065Z,98628.68
2018-12-10T04:31:59.186Z,98630.95
2018-12-10T04:34:28.388Z,98622.27
2018-12-10T04:36:57.812Z,98630.09
2018-12-10T04:39:26.835Z,98629.34
2018-12-10T04:41:55.969Z,98636.52
2018-12-10T04:44:25.508Z,98629.45
2018-12-10T04:46:55.487Z,98630.04
2018-12-10T04:49:24.575Z,98632.13
2018-12-10T04:51:54.026Z,98638.63
2018-12-10T04:54:23.194Z,98644.59
2018-12-10T04:56:52.250Z,98646.86
2018-12-10T04:59:21.413Z,98654.59
2018-12-10T05:01:50.602Z,98652.89
2018-12-10T05:04:19.780Z,98512.33
2018-12-10T05:06:49.181Z,98649.67
2018-12-10T05:09:18.290Z,98656.10
2018-12-10T05:11:47.385Z,98658.19
2018-12-10T05:14:16.781Z,98658.19
2018-12-10T05:16:45.870Z,98651.02
2018-12-10T05:19:14.945Z,98661.11
2018-12-10T05:21:44.365Z,98671.11
2018-12-10T05:24:14.705Z,98666.02
2018-12-10T05:26:43.781Z,98668.37
2018-12-10T05:29:13.166Z,98673.38
2018-12-10T05:31:42.381Z,98671.58
2018-12-10T05:34:11.553Z,98666.67
2018-12-10T05:36:40.690Z,98662.14
2018-12-10T05:39:09.694Z,98669.88
2018-12-10T05:41:38.757Z,98673.45
2018-12-10T05:44:08.174Z,98677.81
2018-12-10T05:46:37.248Z,98690.64
2018-12-10T05:49:06.356Z,98689.88
2018-12-10T05:51:35.891Z,98696.02
2018-12-10T05:54:05.163Z,98690.63
2018-12-10T05:56:34.770Z,98701.48
2018-12-10T05:59:04.188Z,98696.77
2018-12-10T06:01:33.263Z,98696.95
2018-12-10T06:04:02.357Z,98700.81
2018-12-10T06:06:31.873Z,98706.95
2018-12-10T06:09:00.957Z,98713.27
2018-12-10T06:11:30.054Z,98715.34
2018-12-10T06:13:59.362Z,98719.48
2018-12-10T06:16:28.575Z,98715.05
2018-12-10T06:18:57.605Z,98720.81
2018-12-10T06:21:27.286Z,98717.05
2018-12-10T06:23:57.566Z,98717.33
2018-12-10T06:26:27.033Z,98721.77
2018-12-10T06:28:56.145Z,98724.97
2018-12-10T06:31:25.270Z,98724.03
2018-12-10T06:33:54.586Z,98729.02
2018-12-10T06:36:24.274Z,98733.16
2018-12-10T06:38:53.475Z,98733.28
2018-12-10T06:41:22.894Z,98732.61
2018-12-10T06:43:51.961Z,98737.05
2018-12-10T06:46:21.061Z,98741.30
2018-12-10T06:48:50.486Z,98743.66
2018-12-10T06:51:19.485Z,98747.34
2018-12-10T06:53:48.534Z,98744.70
2018-12-10T06:56:17.569Z,98745.55
2018-12-10T06:58:47.015Z,98747.62
2018-12-10T07:01:16.037Z,98740.73
2018-12-10T07:03:47.159Z,98743.20
2018-12-10T07:06:16.289Z,98749.91
2018-12-10T07:08:45.384Z,98754.91
2018-12-10T07:11:15.050Z,98755.55
2018-12-10T07:13:44.110Z,98756.31
2018-12-10T07:16:13.150Z,98751.12
2018-12-10T07:18:42.386Z,98760.45
2018-12-10T07:21:11.437Z,98767.16
2018-12-10T07:23:41.294Z,98764.23
2018-12-10T07:26:10.402Z,98767.06
2018-12-10T07:28:39.512Z,98772.07
2018-12-10T07:31:08.568Z,98775.00
2018-12-10T07:33:37.988Z,98776.98
2018-12-10T07:36:06.989Z,98780.29
2018-12-10T07:38:35.990Z,98779.72
2018-12-10T07:41:05.358Z,98777.98
2018-12-10T07:43:34.460Z,98783.69
2018-12-10T07:46:03.555Z,98786.70
2018-12-10T07:48:33.175Z,98799.83
2018-12-10T07:51:02.253Z,98802.09
2018-12-10T07:53:31.333Z,98802.19
2018-12-10T07:56:00.769Z,98798.88
2018-12-10T07:58:29.780Z,98807.28
2018-12-10T08:00:58.838Z,98810.70
2018-12-10T08:03:28.358Z,98807.19
2018-12-10T08:05:57.571Z,98817.69
2018-12-10T08:08:26.630Z,98814.66
2018-12-10T08:10:55.785Z,98810.13
2018-12-10T08:13:24.894Z,98807.12
2018-12-10T08:15:54.941Z,98812.87
2018-12-10T08:18:24.130Z,98819.55
2018-12-10T08:21:01.917Z,98814.63
2018-12-10T08:23:24.320Z,98822.06
2018-12-10T08:25:54.601Z,98816.92
2018-12-10T08:28:23.725Z,98818.90
2018-12-10T08:30:52.903Z,98816.62
2018-12-10T08:33:21.994Z,98819.72
2018-12-10T08:35:51.109Z,98821.11
2018-12-10T08:38:20.793Z,98820.84
2018-12-10T08:40:50.013Z,98822.13
2018-12-10T08:43:19.110Z,98827.50
2018-12-10T08:45:48.181Z,98831.67
2018-12-10T08:48:17.177Z,98832.25
2018-12-10T08:50:46.293Z,98826.11
2018-12-10T08:53:15.295Z,98834.22
2018-12-10T08:55:44.301Z,98837.55
2018-12-10T08:58:13.397Z,98842.64
2018-12-10T09:00:42.446Z,98844.61
2018-12-10T09:03:11.518Z,98846.98
2018-12-10T09:05:40.547Z,98845.09
2018-12-10T09:08:09.641Z,98848.05
2018-12-10T09:10:38.662Z,98851.64
2018-12-10T09:13:07.858Z,98849.44
2018-12-10T09:15:37.163Z,98842.54
2018-12-10T09:18:06.218Z,98855.00
2018-12-10T09:20:35.957Z,98861.15
2018-12-10T09:23:05.135Z,98860.34
2018-12-10T09:25:34.402Z,98865.50
2018-12-10T09:28:03.658Z,98869.38
2018-12-10T09:30:32.795Z,98868.72
2018-12-10T09:33:01.913Z,98871.47
2018-12-10T09:35:30.942Z,98871.55
2018-12-10T09:37:59.941Z,98875.69
2018-12-10T09:40:29.010Z,98878.13
2018-12-10T09:42:58.613Z,98889.65
2018-12-10T09:45:27.765Z,98890.70
2018-12-10T09:47:56.827Z,98892.47
2018-12-10T09:50:25.834Z,98894.58
2018-12-10T09:52:54.838Z,98897.49
2018-12-10T09:55:24.879Z,98890.39
2018-12-10T09:57:54.214Z,98889.64
2018-12-10T10:00:23.569Z,98896.64
2018-12-10T10:02:52.709Z,98892.26
2018-12-10T10:05:21.738Z,98899.42
2018-12-10T10:07:51.406Z,98896.94
2018-12-10T10:10:20.489Z,98895.09
2018-12-10T10:12:49.623Z,98897.53
2018-12-10T10:15:18.606Z,98895.45
2018-12-10T10:17:47.673Z,98900.07
2018-12-10T10:20:16.707Z,98900.71
2018-12-10T10:22:45.962Z,98910.05
2018-12-10T10:25:14.970Z,98910.53
2018-12-10T10:27:45.296Z,98908.89
2018-12-10T10:30:14.289Z,98912.81
2018-12-10T10:32:43.470Z,98913.01
2018-12-10T10:35:12.989Z,98912.21
2018-12-10T10:37:43.974Z,98926.70
2018-12-10T10:40:13.436Z,98928.88
2018-12-10T10:42:42.513Z,98931.21
2018-12-10T10:45:11.713Z,98928.08
2018-12-10T10:47:42.060Z,98929.19
2018-12-10T10:50:11.081Z,98927.33
2018-12-10T10:52:40.114Z,98926.86
2018-12-10T10:55:09.379Z,98929.19
2018-12-10T10:57:39.453Z,98935.03
2018-12-10T11:00:16.021Z,98932.48
2018-12-10T11:02:51.488Z,98933.59
2018-12-10T11:05:20.569Z,98935.72
2018-12-10T11:07:50.013Z,98938.27
2018-12-10T11:10:19.078Z,98938.48
2018-12-10T11:12:48.290Z,98934.98
2018-12-10T11:15:17.642Z,98940.66
2018-12-10T11:17:46.783Z,98936.56
2018-12-10T11:20:16.257Z,98943.41
2018-12-10T11:22:45.463Z,98940.39
2018-12-10T11:25:14.651Z,98943.05
2018-12-10T11:27:43.749Z,98945.06
2018-12-10T11:30:14.069Z,98946.66
2018-12-10T11:32:43.267Z,98859.83
2018-12-10T11:35:12.609Z,98950.09
2018-12-10T11:37:41.777Z,98948.94
2018-12-10T11:40:10.857Z,98958.97
2018-12-10T11:42:41.289Z,98953.39
2018-12-10T11:45:10.396Z,98956.73
2018-12-10T11:47:39.611Z,98960.17
2018-12-10T11:50:08.619Z,98968.72
2018-12-10T11:52:37.765Z,98970.22
2018-12-10T11:55:07.777Z,98975.36
2018-12-10T11:57:36.926Z,98981.03
2018-12-10T12:00:08.361Z,98987.09
2018-12-10T12:02:37.382Z,98983.90
2018-12-10T12:05:06.737Z,98985.39
2018-12-10T12:07:35.905Z,98987.03
2018-12-10T12:10:07.227Z,98993.83
2018-12-10T12:12:36.269Z,98995.73
2018-12-10T12:15:06.837Z,98994.51
2018-12-10T12:17:35.986Z,99002.89
2018-12-10T12:20:06.647Z,99000.78
2018-12-10T12:22:35.931Z,99012.52
2018-12-10T12:25:05.545Z,99021.27
2018-12-10T12:27:34.937Z,99024.77
2018-12-10T12:30:04.969Z,99031.02
2018-12-10T12:32:33.988Z,99028.16
2018-12-10T12:35:03.565Z,99035.13
2018-12-10T12:37:32.856Z,99036.08
2018-12-10T12:40:01.935Z,99043.56
2018-12-10T12:42:31.081Z,99040.22
2018-12-10T12:45:00.934Z,99047.71
2018-12-10T12:47:30.024Z,99045.16
2018-12-10T12:49:59.460Z,99048.39
2018-12-10T12:52:28.525Z,99054.25
2018-12-10T12:54:57.636Z,99029.33
2018-12-10T12:57:26.957Z,99058.27
2018-12-10T12:59:56.018Z,99069.23
2018-12-10T13:02:25.009Z,99069.75
2018-12-10T13:04:54.032Z,99073.56
2018-12-10T13:07:23.206Z,99074.31
2018-12-10T13:09:52.446Z,99084.25
2018-12-10T13:12:21.541Z,99090.50
2018-12-10T13:14:50.605Z,99090.70
2018-12-10T13:17:19.693Z,99093.06
2018-12-10T13:19:48.913Z,99101.48
2018-12-10T13:22:17.989Z,99106.41
2018-12-10T13:24:47.158Z,99114.91
2018-12-10T13:27:16.207Z,99118.32
2018-12-10T13:29:45.207Z,99116.99
2018-12-10T13:32:14.279Z,99118.00
2018-12-10T13:34:43.468Z,99115.92
2018-12-10T13:37:13.174Z,99119.08
2018-12-10T13:39:42.269Z,99125.86
2018-12-10T13:42:11.381Z,99124.25
2018-12-10T13:44:40.445Z,99127.74
2018-12-10T13:47:09.457Z,99134.55
2018-12-10T13:49:38.915Z,99140.23
2018-12-10T13:52:09.165Z,99142.54
2018-12-10T13:54:39.105Z,99139.89
2018-12-10T13:57:08.198Z,99153.95
2018-12-10T13:59:37.290Z,99150.83
2018-12-10T14:02:06.337Z,99154.52
2018-12-10T14:04:40.681Z,99157.35
2018-12-10T14:07:09.967Z,99165.02
2018-12-10T14:09:39.702Z,99169.77
2018-12-10T14:12:08.802Z,99180.04
2018-12-10T14:14:37.921Z,99179.20
2018-12-10T14:17:07.001Z,99184.39
2018-12-10T14:19:36.078Z,99189.98
2018-12-10T14:22:05.818Z,99196.14
2018-12-10T14:24:34.885Z,99201.30
2018-12-10T14:27:03.981Z,99200.36
2018-12-10T14:29:33.282Z,99208.22
2018-12-10T14:32:02.403Z,99205.28
2018-12-10T14:34:31.483Z,99214.93
2018-12-10T14:37:00.537Z,99216.07
2018-12-10T14:39:29.677Z,99222.73
2018-12-10T14:41:58.766Z,99228.84
2018-12-10T14:44:27.877Z,99227.33
2018-12-10T14:46:56.950Z,99231.87
2018-12-10T14:49:26.050Z,99230.45
2018-12-10T14:51:55.625Z,99241.80
2018-12-10T14:54:24.693Z,99241.33
2018-12-10T14:56:53.698Z,99245.48
2018-12-10T14:59:23.065Z,99247.37
2018-12-10T15:01:52.283Z,99251.77
2018-12-10T15:04:21.345Z,99253.75
2018-12-10T15:06:50.563Z,99257.45
2018-12-10T15:09:19.637Z,99261.70
2018-12-10T15:11:48.913Z,99259.25
2018-12-10T15:14:18.170Z,99264.14
2018-12-10T15:16:47.187Z,99267.98
2018-12-10T15:19:16.669Z,99272.07
2018-12-10T15:21:45.894Z,99275.86
2018-12-10T15:24:14.909Z,99277.55
2018-12-10T15:26:44.034Z,99280.17
2018-12-10T15:29:13.754Z,99286.52
2018-12-10T15:31:42.758Z,99284.84
2018-12-10T15:34:11.821Z,99288.50
2018-12-10T15:36:41.933Z,99284.14
2018-12-10T15:39:11.185Z,99285.20
2018-12-10T15:41:40.209Z,99285.84
2018-12-10T15:44:10.278Z,99294.89
2018-12-10T15:46:39.302Z,99301.92
2018-12-10T15:49:09.066Z,99302.23
2018-12-10T15:51:38.136Z,99305.53
2018-12-10T15:54:07.866Z,99306.98
2018-12-10T15:56:36.941Z,99309.84
2018-12-10T15:59:06.474Z,99322.30
2018-12-10T16:01:35.562Z,99333.52
2018-12-10T16:04:04.713Z,99343.03
2018-12-10T16:06:33.767Z,99343.94
2018-12-10T16:09:04.264Z,99351.14
2018-12-10T16:11:34.512Z,99363.17
2018-12-10T16:14:04.238Z,99372.01
2018-12-10T16:16:34.365Z,99372.08
2018-12-10T16:19:03.454Z,99380.79
2018-12-10T16:21:32.440Z,99384.76
2018-12-10T16:24:02.081Z,99384.03
2018-12-10T16:26:32.242Z,99390.05
2018-12-10T16:29:01.425Z,99391.89
2018-12-10T16:31:30.537Z,99391.85
2018-12-10T16:33:59.941Z,99397.76
2018-12-10T16:36:29.209Z,99392.16
2018-12-10T16:38:58.328Z,99392.32
2018-12-10T16:41:27.437Z,99395.77
2018-12-10T16:43:56.510Z,99402.19
2018-12-10T16:46:25.651Z,99407.02
2018-12-10T16:48:54.736Z,99413.94
2018-12-10T16:51:23.935Z,99416.80
2018-12-10T16:53:53.269Z,99421.15
2018-12-10T16:56:22.833Z,99426.99
2018-12-10T16:58:52.118Z,99438.77
2018-12-10T17:01:21.389Z,99438.95
2018-12-10T17:03:50.413Z,99444.87
2018-12-10T17:06:19.498Z,99447.89
2018-12-10T17:08:48.514Z,99453.44
2018-12-10T17:11:17.845Z,99460.05
2018-12-10T17:13:47.673Z,99463.87
2018-12-10T17:16:16.702Z,99460.37
2018-12-10T17:18:45.934Z,99470.69
2018-12-10T17:21:14.931Z,99472.94
2018-12-10T17:23:44.256Z,99473.02
2018-12-10T17:26:13.409Z,99482.19
2018-12-10T17:28:42.508Z,99483.16
2018-12-10T17:31:11.774Z,99490.89
2018-12-10T17:33:41.197Z,99497.23
2018-12-10T17:36:10.411Z,99497.57
2018-12-10T17:38:39.606Z,99506.47
2018-12-10T17:41:09.410Z,99508.34
2018-12-10T17:43:38.581Z,99519.49
2018-12-10T17:46:08.133Z,99526.95
2018-12-10T17:48:37.212Z,99537.14
2018-12-10T17:51:06.247Z,99543.98
2018-12-10T17:53:35.493Z,99540.88
2018-12-10T17:56:05.357Z,99546.08
2018-12-10T17:58:34.638Z,99553.38
2018-12-10T18:01:03.932Z,99547.16
2018-12-10T18:03:33.588Z,99569.77
2018-12-10T18:06:02.719Z,99568.31
2018-12-10T18:08:31.714Z,99582.63
2018-12-10T18:11:00.897Z,99582.69
2018-12-10T18:13:29.983Z,99586.02
2018-12-10T18:16:01.670Z,99593.41
2018-12-10T18:18:30.838Z,99589.69
2018-12-10T18:21:00.785Z,99608.92
2018-12-10T18:23:31.108Z,99602.85
2018-12-10T18:26:00.614Z,99604.17
2018-12-10T18:28:29.761Z,99607.52
2018-12-10T18:30:59.113Z,99620.81
2018-12-10T18:33:29.832Z,99617.24
2018-12-10T18:35:59.055Z,99620.98
2018-12-10T18:38:28.214Z,99628.50
2018-12-10T18:40:57.259Z,99627.84
2018-12-10T18:43:26.337Z,99634.23
2018-12-10T18:45:55.497Z,99639.42
2018-12-10T18:48:24.584Z,99648.67
2018-12-10T18:50:53.920Z,99655.88
2018-12-10T18:53:22.977Z,99652.63
2018-12-10T18:55:52.496Z,99660.52
2018-12-10T18:58:22.581Z,99673.84
2018-12-10T19:00:51.709Z,99676.41
2018-12-10T19:03:21.120Z,99680.84
2018-12-10T19:05:50.137Z,99688.77
2018-12-10T19:08:19.333Z,99702.33
2018-12-10T19:10:48.433Z,99700.36
2018-12-10T19:13:17.485Z,99711.78
2018-12-10T19:15:46.864Z,99711.98
2018-12-10T19:18:16.034Z,99719.76
2018-12-10T19:20:45.071Z,99727.84
2018-12-10T19:23:14.408Z,99733.43
2018-12-10T19:25:43.538Z,99741.37
2018-12-10T19:28:12.566Z,99748.67
2018-12-10T19:30:41.673Z,99743.79
2018-12-10T19:33:10.779Z,99744.72
2018-12-10T19:35:39.860Z,99754.84
2018-12-10T19:38:08.947Z,99758.61
2018-12-10T19:40:37.972Z,99765.54
2018-12-10T19:43:07.170Z,99766.70
2018-12-10T19:45:36.218Z,99769.69
2018-12-10T19:48:05.451Z,99778.41
2018-12-10T19:50:35.385Z,99780.97
2018-12-10T19:53:04.491Z,99784.34
2018-12-10T19:55:35.077Z,99792.20
2018-12-10T19:58:04.329Z,99792.41
2018-12-10T20:00:33.576Z,99800.66
2018-12-10T20:03:05.178Z,99800.88
2018-12-10T20:05:40.177Z,99808.39
2018-12-10T20:08:09.497Z,99810.89
2018-12-10T20:10:38.674Z,99815.25
2018-12-10T20:13:07.875Z,99823.98
2018-12-10T20:15:37.026Z,99830.00
2018-12-10T20:18:06.220Z,99828.86
2018-12-10T20:20:35.382Z,99831.09
2018-12-10T20:23:04.804Z,99839.42
2018-12-10T20:25:33.982Z,99844.14
2018-12-10T20:28:03.169Z,99850.08
2018-12-10T20:30:32.359Z,99843.93
2018-12-10T20:33:01.494Z,99852.09
2018-12-10T20:35:30.714Z,99858.17
2018-12-10T20:38:00.285Z,99853.67
2018-12-10T20:40:29.571Z,99858.14
2018-12-10T20:42:58.626Z,99859.39
2018-12-10T20:45:28.553Z,99868.44
2018-12-10T20:47:57.811Z,99878.02
2018-12-10T20:50:26.992Z,99878.34
2018-12-10T20:52:56.174Z,99883.81
2018-12-10T20:55:25.225Z,99887.31
2018-12-10T20:57:54.317Z,99870.66
2018-12-10T21:00:24.465Z,99911.81
2018-12-10T21:02:53.534Z,99906.52
2018-12-10T21:05:24.733Z,99913.72
2018-12-10T21:07:53.782Z,99925.23
2018-12-10T21:10:22.993Z,99923.73
2018-12-10T21:12:52.110Z,99929.44
2018-12-10T21:15:21.241Z,99929.72
2018-12-10T21:17:50.366Z,99938.23
2018-12-10T21:20:19.796Z,99934.16
2018-12-10T21:22:49.483Z,99935.80
2018-12-10T21:25:18.547Z,99936.73
2018-12-10T21:27:47.582Z,99939.45
2018-12-10T21:30:16.661Z,99937.80
2018-12-10T21:32:45.666Z,99941.70
2018-12-10T21:35:14.833Z,99937.80
2018-12-10T21:37:43.839Z,99942.23
2018-12-10T21:40:13.050Z,99919.00
2018-12-10T21:42:42.064Z,99952.14
2018-12-10T21:45:10.741Z,99956.17
2018-12-10T21:47:39.816Z,99950.81
2018-12-10T21:50:09.573Z,99951.40
2018-12-10T21:52:39.745Z,99960.12
2018-12-10T21:55:08.961Z,99970.45
2018-12-10T21:57:37.989Z,99969.85
2018-12-10T22:00:07.562Z,99969.19
2018-12-10T22:02:36.631Z,99970.05
2018-12-10T22:05:05.989Z,99982.35
2018-12-10T22:07:35.145Z,99985.07
2018-12-10T22:10:04.667Z,99989.44
2018-12-10T22:12:33.681Z,99984.80
2018-12-10T22:15:02.764Z,99983.80
2018-12-10T22:17:31.962Z,99994.84
2018-12-10T22:20:01.038Z,99998.67
2018-12-10T22:22:30.109Z,99999.39
2018-12-10T22:24:59.133Z,100008.27
2018-12-10T22:27:29.247Z,100008.92
2018-12-10T22:29:58.334Z,100014.72
2018-12-10T22:32:27.437Z,100019.77
2018-12-10T22:34:56.547Z,100026.17
2018-12-10T22:37:25.624Z,100029.54
2018-12-10T22:39:54.701Z,100029.47
2018-12-10T22:42:23.813Z,100036.41
2018-12-10T22:44:53.031Z,100043.81
2018-12-10T22:47:22.097Z,100047.42
2018-12-10T22:49:51.218Z,100054.45
2018-12-10T22:52:20.281Z,100057.89
2018-12-10T22:54:49.398Z,100065.84
2018-12-10T22:57:18.797Z,100061.61
2018-12-10T22:59:47.902Z,100066.95
2018-12-10T23:02:16.953Z,100074.31
2018-12-10T23:04:46.151Z,100075.23
2018-12-10T23:07:15.334Z,100081.59
2018-12-10T23:09:44.349Z,100082.52
2018-12-10T23:12:13.857Z,100086.19
2018-12-10T23:14:42.966Z,100095.37
2018-12-10T23:17:12.114Z,100097.69
2018-12-10T23:19:41.401Z,100103.38
2018-12-10T23:22:10.417Z,100103.58
2018-12-10T23:24:39.545Z,100109.02
2018-12-10T23:27:08.668Z,100118.41
2018-12-10T23:29:37.737Z,100117.15
2018-12-10T23:32:06.841Z,100125.09
2018-12-10T23:34:35.948Z,100115.95
2018-12-10T23:37:05.033Z,100121.25
2018-12-10T23:39:34.115Z,100124.50
2018-12-10T23:42:03.717Z,100133.43
2018-12-10T23:44:38.199Z,100136.08
2018-12-10T23:47:07.356Z,100138.73
2018-12-10T23:49:36.433Z,100140.52
2018-12-10T23:52:05.616Z,100153.22
2018-12-10T23:54:35.050Z,100153.48
2018-12-10T23:57:04.233Z,100157.62
2018-12-10T23:59:33.330Z,100155.37
